Varva — A8UP7 — position and weather

sailwx.info

Track history (hours):
 
Tides and Currents Weather Stations Pressure Air Temp Water Temp Dewpoint Dewpoint Depression Visibility Wind Speed Wind Dir Waves Ship Positions

Varva

Last reported at 2014-Oct-02 10:33 UTC. Time now 2014-Oct-21 13:37 UTC.
Position N 36°26' E 014°00'.
Warning: this ship's position is 19 days out of date.

Length 224 m; draft 13.5 m.

Type: Cargo ship. MMSI: 636014536.

Date/timePositionNaut miles runAvg speedWind from/ knotsBaromVisibWave heightAir tempDewpointWater temp
2014-Oct-02 10:33N 36°26' E 014°00'1211.6
2014-Oct-02 09:29N 36°31' E 013°46'1111.4
2014-Oct-02 08:33N 36°35' E 013°34'1211.1
2014-Oct-02 07:30N 36°40' E 013°21'1111.0
2014-Oct-02 06:28N 36°45' E 013°08'1011.3
2014-Oct-02 05:33N 36°49' E 012°56'1111.4
2014-Oct-02 04:33N 36°53' E 012°43'1111.2
2014-Oct-02 03:33N 36°58' E 012°30'10111.2
2014-Oct-01 18:33N 37°31' E 010°30'1111.0
2014-Oct-01 17:33N 37°34' E 010°17'1111.2
2014-Oct-01 16:33N 37°34' E 010°03'1111.3
2014-Oct-01 15:33N 37°32' E 009°49'1111.6
2014-Oct-01 14:33N 37°28' E 009°35'1211.4
2014-Oct-01 13:33N 37°24' E 009°22'1111.3
2014-Oct-01 12:33N 37°21' E 009°08'20111.1
2014-Sep-30 18:26N 37°18' E 004°55'1111.3
2014-Sep-30 17:30N 37°19' E 004°42'2411.2
2014-Sep-30 15:21N 37°19' E 004°12'  
2014-Sep-27 23:21N 37°39' W 009°48'2411.0
2014-Sep-27 21:07N 38°03' W 009°56'610.7
2014-Sep-27 20:33N 38°09' W 009°57'2210.8
2014-Sep-27 18:33N 38°30' W 010°04'1110.8
2014-Sep-27 17:33N 38°41' W 010°06'  
2014-Sep-24 09:12N 50°27' W 000°20'16 8.6
2014-Sep-24 07:19N 50°31' E 000°04'7 9.6
2014-Sep-24 06:33N 50°33' E 000°15'1110.9
2014-Sep-24 05:33N 50°36' E 000°32'1211.8
2014-Sep-24 04:33N 50°42' E 000°48'2311.4
2014-Sep-24 02:33N 50°57' E 001°16'9 9.6
2014-Sep-24 01:33N 51°04' E 001°26'8 8.0
2014-Sep-24 00:33N 51°09' E 001°36'8 7.9
2014-Sep-23 23:33N 51°14' E 001°45'9 9.4
2014-Sep-23 22:34N 51°22' E 001°53'1111.2
2014-Sep-23 21:33N 51°32' E 002°03'1212.4
2014-Sep-23 20:33N 51°41' E 002°16'  
Track history (hours):
 
Tides and Currents Weather Stations Pressure Air Temp Water Temp Dewpoint Dewpoint Depression Visibility Wind Speed Wind Dir Waves Ship Positions

Varva

Last reported at 2014-Oct-02 10:33 UTC. Time now 2014-Oct-21 13:37 UTC.
Position N 36°26' E 014°00'.
Warning: this ship's position is 19 days out of date.

Length 224 m; draft 13.5 m.

Type: Cargo ship. MMSI: 636014536.

Date/timePositionNaut miles runAvg speedWind from/ knotsBaromVisibWave heightAir tempDewpointWater temp
2014-Oct-02 10:33N 36°26' E 014°00'1211.6
2014-Oct-02 09:29N 36°31' E 013°46'1111.4
2014-Oct-02 08:33N 36°35' E 013°34'1211.1
2014-Oct-02 07:30N 36°40' E 013°21'1111.0
2014-Oct-02 06:28N 36°45' E 013°08'1011.3
2014-Oct-02 05:33N 36°49' E 012°56'1111.4
2014-Oct-02 04:33N 36°53' E 012°43'1111.2
2014-Oct-02 03:33N 36°58' E 012°30'10111.2
2014-Oct-01 18:33N 37°31' E 010°30'1111.0
2014-Oct-01 17:33N 37°34' E 010°17'1111.2
2014-Oct-01 16:33N 37°34' E 010°03'1111.3
2014-Oct-01 15:33N 37°32' E 009°49'1111.6
2014-Oct-01 14:33N 37°28' E 009°35'1211.4
2014-Oct-01 13:33N 37°24' E 009°22'1111.3
2014-Oct-01 12:33N 37°21' E 009°08'20111.1
2014-Sep-30 18:26N 37°18' E 004°55'1111.3
2014-Sep-30 17:30N 37°19' E 004°42'2411.2
2014-Sep-30 15:21N 37°19' E 004°12'  
2014-Sep-27 23:21N 37°39' W 009°48'2411.0
2014-Sep-27 21:07N 38°03' W 009°56'610.7
2014-Sep-27 20:33N 38°09' W 009°57'2210.8
2014-Sep-27 18:33N 38°30' W 010°04'1110.8
2014-Sep-27 17:33N 38°41' W 010°06'  
2014-Sep-24 09:12N 50°27' W 000°20'16 8.6
2014-Sep-24 07:19N 50°31' E 000°04'7 9.6
2014-Sep-24 06:33N 50°33' E 000°15'1110.9
2014-Sep-24 05:33N 50°36' E 000°32'1211.8
2014-Sep-24 04:33N 50°42' E 000°48'2311.4
2014-Sep-24 02:33N 50°57' E 001°16'9 9.6
2014-Sep-24 01:33N 51°04' E 001°26'8 8.0
2014-Sep-24 00:33N 51°09' E 001°36'8 7.9
2014-Sep-23 23:33N 51°14' E 001°45'9 9.4
2014-Sep-23 22:34N 51°22' E 001°53'1111.2
2014-Sep-23 21:33N 51°32' E 002°03'1212.4
2014-Sep-23 20:33N 51°41' E 002°16'  

Dump ship's entire track history